sensor_id;sensor_type;location;lat;lon;timestamp;temperature;humidity
23597;DHT22;40226;50.874;4.394;2024-03-29T00:01:10;10.50;99.90
23597;DHT22;40226;50.874;4.394;2024-03-29T00:03:36;10.50;99.90
23597;DHT22;40226;50.874;4.394;2024-03-29T00:06:02;10.50;99.90
23597;DHT22;40226;50.874;4.394;2024-03-29T00:08:27;10.50;99.90
23597;DHT22;40226;50.874;4.394;2024-03-29T00:10:53;10.50;99.90
23597;DHT22;40226;50.874;4.394;2024-03-29T00:13:18;10.50;99.90
23597;DHT22;40226;50.874;4.394;2024-03-29T00:15:46;10.50;99.90
23597;DHT22;40226;50.874;4.394;2024-03-29T00:18:11;10.50;99.90
23597;DHT22;40226;50.874;4.394;2024-03-29T00:20:37;10.50;99.90
23597;DHT22;40226;50.874;4.394;2024-03-29T00:23:02;10.50;99.90
23597;DHT22;40226;50.874;4.394;2024-03-29T00:25:28;10.50;99.90
23597;DHT22;40226;50.874;4.394;2024-03-29T00:27:54;10.50;99.90
23597;DHT22;40226;50.874;4.394;2024-03-29T00:30:20;10.60;99.90
23597;DHT22;40226;50.874;4.394;2024-03-29T00:32:46;10.60;99.90
23597;DHT22;40226;50.874;4.394;2024-03-29T00:35:11;10.60;99.90
23597;DHT22;40226;50.874;4.394;2024-03-29T00:37:39;10.60;99.90
23597;DHT22;40226;50.874;4.394;2024-03-29T00:40:06;10.60;99.90
23597;DHT22;40226;50.874;4.394;2024-03-29T00:42:33;10.60;99.90
23597;DHT22;40226;50.874;4.394;2024-03-29T00:45:00;10.70;99.90
23597;DHT22;40226;50.874;4.394;2024-03-29T00:47:26;10.70;99.90
23597;DHT22;40226;50.874;4.394;2024-03-29T00:49:51;10.70;99.90
23597;DHT22;40226;50.874;4.394;2024-03-29T00:52:17;10.70;99.90
23597;DHT22;40226;50.874;4.394;2024-03-29T00:54:43;10.70;99.90
23597;DHT22;40226;50.874;4.394;2024-03-29T00:57:09;10.80;99.90
23597;DHT22;40226;50.874;4.394;2024-03-29T00:59:38;10.80;99.90
23597;DHT22;40226;50.874;4.394;2024-03-29T01:02:04;10.80;99.90
23597;DHT22;40226;50.874;4.394;2024-03-29T01:04:30;10.80;99.90
23597;DHT22;40226;50.874;4.394;2024-03-29T01:06:55;10.90;99.90
23597;DHT22;40226;50.874;4.394;2024-03-29T01:09:21;11.00;99.90
23597;DHT22;40226;50.874;4.394;2024-03-29T01:11:47;11.00;99.90
23597;DHT22;40226;50.874;4.394;2024-03-29T01:14:13;11.00;99.90
23597;DHT22;40226;50.874;4.394;2024-03-29T01:16:38;11.00;99.90
23597;DHT22;40226;50.874;4.394;2024-03-29T01:19:06;11.00;99.90
23597;DHT22;40226;50.874;4.394;2024-03-29T01:21:33;10.90;99.90
23597;DHT22;40226;50.874;4.394;2024-03-29T01:23:59;10.90;99.90
23597;DHT22;40226;50.874;4.394;2024-03-29T01:26:25;10.90;99.90
23597;DHT22;40226;50.874;4.394;2024-03-29T01:28:57;10.90;99.90
23597;DHT22;40226;50.874;4.394;2024-03-29T01:31:23;10.80;99.90
23597;DHT22;40226;50.874;4.394;2024-03-29T01:33:49;10.80;99.90
23597;DHT22;40226;50.874;4.394;2024-03-29T01:36:15;10.70;99.90
23597;DHT22;40226;50.874;4.394;2024-03-29T01:38:41;10.70;99.90
23597;DHT22;40226;50.874;4.394;2024-03-29T01:41:07;10.60;99.90
23597;DHT22;40226;50.874;4.394;2024-03-29T01:43:33;10.60;99.90
23597;DHT22;40226;50.874;4.394;2024-03-29T01:45:59;10.50;1.00
23597;DHT22;40226;50.874;4.394;2024-03-29T01:48:25;10.50;1.00
23597;DHT22;40226;50.874;4.394;2024-03-29T01:50:54;10.50;1.00
23597;DHT22;40226;50.874;4.394;2024-03-29T01:53:21;10.40;1.00
23597;DHT22;40226;50.874;4.394;2024-03-29T01:55:47;10.30;1.00
23597;DHT22;40226;50.874;4.394;2024-03-29T01:58:14;10.20;99.90
23597;DHT22;40226;50.874;4.394;2024-03-29T02:00:44;10.10;99.90
23597;DHT22;40226;50.874;4.394;2024-03-29T02:03:10;10.10;99.90
23597;DHT22;40226;50.874;4.394;2024-03-29T02:05:40;10.00;1.00
23597;DHT22;40226;50.874;4.394;2024-03-29T02:08:07;10.00;1.00
23597;DHT22;40226;50.874;4.394;2024-03-29T02:10:34;10.00;1.00
23597;DHT22;40226;50.874;4.394;2024-03-29T02:13:01;9.90;99.90
23597;DHT22;40226;50.874;4.394;2024-03-29T02:15:28;9.80;1.00
23597;DHT22;40226;50.874;4.394;2024-03-29T02:17:54;9.60;1.00
23597;DHT22;40226;50.874;4.394;2024-03-29T02:20:20;9.50;1.00
23597;DHT22;40226;50.874;4.394;2024-03-29T02:23:00;9.50;99.90
23597;DHT22;40226;50.874;4.394;2024-03-29T02:25:27;9.40;87.80
23597;DHT22;40226;50.874;4.394;2024-03-29T02:27:54;9.30;1.00
23597;DHT22;40226;50.874;4.394;2024-03-29T02:30:20;9.30;99.90
23597;DHT22;40226;50.874;4.394;2024-03-29T02:32:47;9.20;99.90
23597;DHT22;40226;50.874;4.394;2024-03-29T02:35:12;9.20;99.90
23597;DHT22;40226;50.874;4.394;2024-03-29T02:37:45;9.10;1.00
23597;DHT22;40226;50.874;4.394;2024-03-29T02:40:11;9.00;99.90
23597;DHT22;40226;50.874;4.394;2024-03-29T02:42:38;9.00;1.00
23597;DHT22;40226;50.874;4.394;2024-03-29T02:45:04;8.80;1.00
23597;DHT22;40226;50.874;4.394;2024-03-29T02:47:29;8.80;1.00
23597;DHT22;40226;50.874;4.394;2024-03-29T02:49:55;8.70;1.00
23597;DHT22;40226;50.874;4.394;2024-03-29T02:52:21;8.60;1.00
23597;DHT22;40226;50.874;4.394;2024-03-29T02:54:47;8.60;32.00
23597;DHT22;40226;50.874;4.394;2024-03-29T02:57:12;8.50;85.40
23597;DHT22;40226;50.874;4.394;2024-03-29T02:59:40;8.50;91.60
23597;DHT22;40226;50.874;4.394;2024-03-29T03:02:06;8.50;99.90
23597;DHT22;40226;50.874;4.394;2024-03-29T03:04:32;8.50;99.90
23597;DHT22;40226;50.874;4.394;2024-03-29T03:06:58;8.40;99.90
23597;DHT22;40226;50.874;4.394;2024-03-29T03:09:44;8.40;99.90
23597;DHT22;40226;50.874;4.394;2024-03-29T03:12:31;8.50;99.90
23597;DHT22;40226;50.874;4.394;2024-03-29T03:14:57;8.50;99.90
23597;DHT22;40226;50.874;4.394;2024-03-29T03:17:23;8.40;99.90
23597;DHT22;40226;50.874;4.394;2024-03-29T03:19:51;8.40;99.90
23597;DHT22;40226;50.874;4.394;2024-03-29T03:22:17;8.30;99.90
23597;DHT22;40226;50.874;4.394;2024-03-29T03:24:43;8.30;99.90
23597;DHT22;40226;50.874;4.394;2024-03-29T03:27:08;8.40;99.90
23597;DHT22;40226;50.874;4.394;2024-03-29T03:29:34;8.30;99.90
23597;DHT22;40226;50.874;4.394;2024-03-29T03:31:59;8.30;99.90
23597;DHT22;40226;50.874;4.394;2024-03-29T03:34:25;8.30;99.90
23597;DHT22;40226;50.874;4.394;2024-03-29T03:36:51;8.40;99.90
23597;DHT22;40226;50.874;4.394;2024-03-29T03:39:16;8.30;99.90
23597;DHT22;40226;50.874;4.394;2024-03-29T03:41:42;8.40;99.90
23597;DHT22;40226;50.874;4.394;2024-03-29T03:44:07;8.40;99.90
23597;DHT22;40226;50.874;4.394;2024-03-29T03:46:33;8.40;99.90
23597;DHT22;40226;50.874;4.394;2024-03-29T03:48:59;8.30;99.90
23597;DHT22;40226;50.874;4.394;2024-03-29T03:51:25;8.20;99.90
23597;DHT22;40226;50.874;4.394;2024-03-29T03:53:51;8.20;99.90
23597;DHT22;40226;50.874;4.394;2024-03-29T03:56:16;8.10;99.90
23597;DHT22;40226;50.874;4.394;2024-03-29T03:58:44;8.20;99.90
23597;DHT22;40226;50.874;4.394;2024-03-29T04:01:10;8.20;99.90
23597;DHT22;40226;50.874;4.394;2024-03-29T04:03:35;8.30;99.90
23597;DHT22;40226;50.874;4.394;2024-03-29T04:06:05;8.40;99.90
23597;DHT22;40226;50.874;4.394;2024-03-29T04:08:31;8.50;99.90
23597;DHT22;40226;50.874;4.394;2024-03-29T04:10:56;8.60;99.90
23597;DHT22;40226;50.874;4.394;2024-03-29T04:13:22;8.70;99.90
23597;DHT22;40226;50.874;4.394;2024-03-29T04:15:47;8.80;99.90
23597;DHT22;40226;50.874;4.394;2024-03-29T04:18:13;8.80;99.90
23597;DHT22;40226;50.874;4.394;2024-03-29T04:20:39;9.00;99.90
23597;DHT22;40226;50.874;4.394;2024-03-29T04:23:06;9.00;99.90
23597;DHT22;40226;50.874;4.394;2024-03-29T04:25:31;8.90;99.90
23597;DHT22;40226;50.874;4.394;2024-03-29T04:27:58;8.80;99.90
23597;DHT22;40226;50.874;4.394;2024-03-29T04:30:23;8.90;99.90
23597;DHT22;40226;50.874;4.394;2024-03-29T04:32:49;9.00;99.90
23597;DHT22;40226;50.874;4.394;2024-03-29T04:35:15;8.90;99.90
23597;DHT22;40226;50.874;4.394;2024-03-29T04:37:40;8.90;99.90
23597;DHT22;40226;50.874;4.394;2024-03-29T04:40:06;8.80;99.90
23597;DHT22;40226;50.874;4.394;2024-03-29T04:42:32;8.50;99.90
23597;DHT22;40226;50.874;4.394;2024-03-29T04:44:58;8.40;99.90
23597;DHT22;40226;50.874;4.394;2024-03-29T04:47:23;8.50;99.90
23597;DHT22;40226;50.874;4.394;2024-03-29T04:49:49;8.40;99.90
23597;DHT22;40226;50.874;4.394;2024-03-29T04:52:15;8.40;99.90
23597;DHT22;40226;50.874;4.394;2024-03-29T04:54:40;8.40;99.90
23597;DHT22;40226;50.874;4.394;2024-03-29T04:57:06;8.40;99.90
23597;DHT22;40226;50.874;4.394;2024-03-29T04:59:32;8.30;99.90
23597;DHT22;40226;50.874;4.394;2024-03-29T05:02:01;8.30;99.90
23597;DHT22;40226;50.874;4.394;2024-03-29T05:04:28;8.30;99.90
23597;DHT22;40226;50.874;4.394;2024-03-29T05:06:57;8.10;99.90
23597;DHT22;40226;50.874;4.394;2024-03-29T05:09:24;8.10;99.90
23597;DHT22;40226;50.874;4.394;2024-03-29T05:11:50;8.10;99.90
23597;DHT22;40226;50.874;4.394;2024-03-29T05:14:17;8.10;99.90
23597;DHT22;40226;50.874;4.394;2024-03-29T05:16:46;8.20;99.90
23597;DHT22;40226;50.874;4.394;2024-03-29T05:19:12;8.30;99.90
23597;DHT22;40226;50.874;4.394;2024-03-29T05:21:38;8.30;99.90
23597;DHT22;40226;50.874;4.394;2024-03-29T05:24:05;8.40;99.90
23597;DHT22;40226;50.874;4.394;2024-03-29T05:26:31;8.50;99.90
23597;DHT22;40226;50.874;4.394;2024-03-29T05:28:56;8.40;99.90
23597;DHT22;40226;50.874;4.394;2024-03-29T05:31:26;8.30;99.90
23597;DHT22;40226;50.874;4.394;2024-03-29T05:33:52;8.30;99.90
23597;DHT22;40226;50.874;4.394;2024-03-29T05:36:19;8.40;99.90
23597;DHT22;40226;50.874;4.394;2024-03-29T05:38:45;8.60;99.90
23597;DHT22;40226;50.874;4.394;2024-03-29T05:41:12;8.50;99.90
23597;DHT22;40226;50.874;4.394;2024-03-29T05:43:40;8.60;99.90
23597;DHT22;40226;50.874;4.394;2024-03-29T05:46:06;8.70;99.90
23597;DHT22;40226;50.874;4.394;2024-03-29T05:48:32;8.90;99.90
23597;DHT22;40226;50.874;4.394;2024-03-29T05:50:57;8.80;99.90
23597;DHT22;40226;50.874;4.394;2024-03-29T05:53:23;8.60;99.90
23597;DHT22;40226;50.874;4.394;2024-03-29T05:55:50;8.80;99.90
23597;DHT22;40226;50.874;4.394;2024-03-29T05:58:16;8.70;99.90
23597;DHT22;40226;50.874;4.394;2024-03-29T06:00:46;8.80;99.90
23597;DHT22;40226;50.874;4.394;2024-03-29T06:03:11;9.00;99.90
23597;DHT22;40226;50.874;4.394;2024-03-29T06:05:39;9.20;99.90
23597;DHT22;40226;50.874;4.394;2024-03-29T06:08:05;9.20;99.90
23597;DHT22;40226;50.874;4.394;2024-03-29T06:10:31;9.20;99.90
23597;DHT22;40226;50.874;4.394;2024-03-29T06:12:56;9.30;99.80
23597;DHT22;40226;50.874;4.394;2024-03-29T06:15:23;9.30;82.90
23597;DHT22;40226;50.874;4.394;2024-03-29T06:18:08;9.50;74.20
23597;DHT22;40226;50.874;4.394;2024-03-29T06:20:35;9.50;54.70
23597;DHT22;40226;50.874;4.394;2024-03-29T06:23:00;9.70;44.80
23597;DHT22;40226;50.874;4.394;2024-03-29T06:25:26;9.90;1.00
23597;DHT22;40226;50.874;4.394;2024-03-29T06:27:52;10.00;1.00
23597;DHT22;40226;50.874;4.394;2024-03-29T06:30:17;10.00;1.00
23597;DHT22;40226;50.874;4.394;2024-03-29T06:32:44;10.20;1.00
23597;DHT22;40226;50.874;4.394;2024-03-29T06:35:11;10.20;1.00
23597;DHT22;40226;50.874;4.394;2024-03-29T06:37:37;10.30;1.00
23597;DHT22;40226;50.874;4.394;2024-03-29T06:40:02;10.40;1.00
23597;DHT22;40226;50.874;4.394;2024-03-29T06:42:28;10.50;1.00
23597;DHT22;40226;50.874;4.394;2024-03-29T06:44:55;10.60;1.00
23597;DHT22;40226;50.874;4.394;2024-03-29T06:47:23;10.70;1.00
23597;DHT22;40226;50.874;4.394;2024-03-29T06:49:49;10.70;1.00
23597;DHT22;40226;50.874;4.394;2024-03-29T06:52:15;10.50;1.00
23597;DHT22;40226;50.874;4.394;2024-03-29T06:54:40;10.50;1.00
23597;DHT22;40226;50.874;4.394;2024-03-29T06:57:06;10.50;1.00
23597;DHT22;40226;50.874;4.394;2024-03-29T06:59:33;10.70;1.00
23597;DHT22;40226;50.874;4.394;2024-03-29T07:01:59;10.70;1.00
23597;DHT22;40226;50.874;4.394;2024-03-29T07:04:24;10.70;1.00
23597;DHT22;40226;50.874;4.394;2024-03-29T07:06:55;10.70;1.00
23597;DHT22;40226;50.874;4.394;2024-03-29T07:09:22;10.80;1.00
23597;DHT22;40226;50.874;4.394;2024-03-29T07:11:49;11.00;1.00
23597;DHT22;40226;50.874;4.394;2024-03-29T07:14:16;10.80;1.00
23597;DHT22;40226;50.874;4.394;2024-03-29T07:16:43;10.80;1.00
23597;DHT22;40226;50.874;4.394;2024-03-29T07:19:09;10.80;1.00
23597;DHT22;40226;50.874;4.394;2024-03-29T07:21:34;10.90;1.00
23597;DHT22;40226;50.874;4.394;2024-03-29T07:24:00;10.90;1.00
23597;DHT22;40226;50.874;4.394;2024-03-29T07:26:26;10.60;1.00
23597;DHT22;40226;50.874;4.394;2024-03-29T07:28:51;10.50;1.00
23597;DHT22;40226;50.874;4.394;2024-03-29T07:31:17;10.70;1.00
23597;DHT22;40226;50.874;4.394;2024-03-29T07:33:43;10.60;1.00
23597;DHT22;40226;50.874;4.394;2024-03-29T07:36:08;10.50;1.00
23597;DHT22;40226;50.874;4.394;2024-03-29T07:38:37;10.30;1.00
23597;DHT22;40226;50.874;4.394;2024-03-29T07:41:03;10.50;1.00
23597;DHT22;40226;50.874;4.394;2024-03-29T07:43:50;10.30;1.00
23597;DHT22;40226;50.874;4.394;2024-03-29T07:46:17;10.50;1.00
23597;DHT22;40226;50.874;4.394;2024-03-29T07:48:45;10.70;1.00
23597;DHT22;40226;50.874;4.394;2024-03-29T07:51:10;10.70;1.00
23597;DHT22;40226;50.874;4.394;2024-03-29T07:53:36;10.40;1.00
23597;DHT22;40226;50.874;4.394;2024-03-29T07:56:02;10.50;5.40
23597;DHT22;40226;50.874;4.394;2024-03-29T07:58:27;10.60;1.00
23597;DHT22;40226;50.874;4.394;2024-03-29T08:00:56;10.80;1.00
23597;DHT22;40226;50.874;4.394;2024-03-29T08:03:22;10.40;1.00
23597;DHT22;40226;50.874;4.394;2024-03-29T08:06:03;10.20;27.60
23597;DHT22;40226;50.874;4.394;2024-03-29T08:08:32;10.10;89.30
23597;DHT22;40226;50.874;4.394;2024-03-29T08:10:58;10.10;99.90
23597;DHT22;40226;50.874;4.394;2024-03-29T08:13:25;10.10;95.10
23597;DHT22;40226;50.874;4.394;2024-03-29T08:16:00;10.10;99.90
23597;DHT22;40226;50.874;4.394;2024-03-29T08:18:27;10.00;99.90
23597;DHT22;40226;50.874;4.394;2024-03-29T08:20:53;9.90;99.90
23597;DHT22;40226;50.874;4.394;2024-03-29T08:23:22;10.00;99.90
23597;DHT22;40226;50.874;4.394;2024-03-29T08:25:48;9.90;99.90
23597;DHT22;40226;50.874;4.394;2024-03-29T08:28:15;10.00;99.90
23597;DHT22;40226;50.874;4.394;2024-03-29T08:30:40;10.10;99.90
23597;DHT22;40226;50.874;4.394;2024-03-29T08:33:06;10.10;99.90
23597;DHT22;40226;50.874;4.394;2024-03-29T08:35:33;10.10;99.90
23597;DHT22;40226;50.874;4.394;2024-03-29T08:37:59;10.20;99.90
23597;DHT22;40226;50.874;4.394;2024-03-29T08:40:27;10.20;99.90
23597;DHT22;40226;50.874;4.394;2024-03-29T08:42:54;10.40;99.90
23597;DHT22;40226;50.874;4.394;2024-03-29T08:45:23;10.50;99.90
23597;DHT22;40226;50.874;4.394;2024-03-29T08:47:49;10.50;73.60
23597;DHT22;40226;50.874;4.394;2024-03-29T08:50:15;10.40;67.30
23597;DHT22;40226;50.874;4.394;2024-03-29T08:52:41;10.40;86.70
23597;DHT22;40226;50.874;4.394;2024-03-29T08:55:07;10.40;81.80
23597;DHT22;40226;50.874;4.394;2024-03-29T08:57:33;10.40;54.50
23597;DHT22;40226;50.874;4.394;2024-03-29T08:59:59;10.50;43.00
23597;DHT22;40226;50.874;4.394;2024-03-29T09:02:25;10.60;13.10
23597;DHT22;40226;50.874;4.394;2024-03-29T09:04:50;10.60;1.00
23597;DHT22;40226;50.874;4.394;2024-03-29T09:07:16;10.90;1.00
23597;DHT22;40226;50.874;4.394;2024-03-29T09:09:42;11.10;1.00
23597;DHT22;40226;50.874;4.394;2024-03-29T09:12:08;11.40;1.00
23597;DHT22;40226;50.874;4.394;2024-03-29T09:14:36;11.50;1.00
23597;DHT22;40226;50.874;4.394;2024-03-29T09:17:02;11.50;1.00
23597;DHT22;40226;50.874;4.394;2024-03-29T09:19:28;11.60;1.00
23597;DHT22;40226;50.874;4.394;2024-03-29T09:21:55;11.60;1.00
23597;DHT22;40226;50.874;4.394;2024-03-29T09:24:21;11.70;1.00
23597;DHT22;40226;50.874;4.394;2024-03-29T09:26:49;11.70;99.90
23597;DHT22;40226;50.874;4.394;2024-03-29T09:29:24;11.70;99.90
23597;DHT22;40226;50.874;4.394;2024-03-29T09:31:49;11.60;99.90
23597;DHT22;40226;50.874;4.394;2024-03-29T09:34:15;11.70;99.90
23597;DHT22;40226;50.874;4.394;2024-03-29T09:36:41;11.70;99.90
23597;DHT22;40226;50.874;4.394;2024-03-29T09:39:07;11.80;99.90
23597;DHT22;40226;50.874;4.394;2024-03-29T09:41:35;11.80;99.90
23597;DHT22;40226;50.874;4.394;2024-03-29T09:44:04;11.80;92.80
23597;DHT22;40226;50.874;4.394;2024-03-29T09:46:33;11.70;67.40
23597;DHT22;40226;50.874;4.394;2024-03-29T09:48:59;11.60;99.90
23597;DHT22;40226;50.874;4.394;2024-03-29T09:51:27;11.50;99.90
23597;DHT22;40226;50.874;4.394;2024-03-29T09:53:56;11.60;99.90
23597;DHT22;40226;50.874;4.394;2024-03-29T09:56:24;11.70;99.90
23597;DHT22;40226;50.874;4.394;2024-03-29T09:58:50;11.80;99.90
23597;DHT22;40226;50.874;4.394;2024-03-29T10:01:16;11.90;75.60
23597;DHT22;40226;50.874;4.394;2024-03-29T10:03:45;11.90;22.20
23597;DHT22;40226;50.874;4.394;2024-03-29T10:06:13;12.10;1.00
23597;DHT22;40226;50.874;4.394;2024-03-29T10:08:39;12.30;1.00
23597;DHT22;40226;50.874;4.394;2024-03-29T10:11:05;12.40;1.00
23597;DHT22;40226;50.874;4.394;2024-03-29T10:13:31;12.60;1.00
23597;DHT22;40226;50.874;4.394;2024-03-29T10:15:57;12.60;99.90
23597;DHT22;40226;50.874;4.394;2024-03-29T10:18:24;12.80;99.90
23597;DHT22;40226;50.874;4.394;2024-03-29T10:21:04;12.70;99.90
23597;DHT22;40226;50.874;4.394;2024-03-29T10:23:31;12.70;99.90
23597;DHT22;40226;50.874;4.394;2024-03-29T10:25:57;12.70;99.90
23597;DHT22;40226;50.874;4.394;2024-03-29T10:28:27;12.60;99.90
23597;DHT22;40226;50.874;4.394;2024-03-29T10:30:54;12.50;99.90
23597;DHT22;40226;50.874;4.394;2024-03-29T10:33:21;12.50;99.90
23597;DHT22;40226;50.874;4.394;2024-03-29T10:35:46;12.70;99.90
23597;DHT22;40226;50.874;4.394;2024-03-29T10:38:12;12.80;99.90
23597;DHT22;40226;50.874;4.394;2024-03-29T10:40:39;12.90;1.00
23597;DHT22;40226;50.874;4.394;2024-03-29T10:43:09;12.80;1.00
23597;DHT22;40226;50.874;4.394;2024-03-29T10:45:38;12.80;1.00
23597;DHT22;40226;50.874;4.394;2024-03-29T10:48:06;12.90;1.00
23597;DHT22;40226;50.874;4.394;2024-03-29T10:50:36;13.00;1.00
23597;DHT22;40226;50.874;4.394;2024-03-29T10:53:02;13.10;1.00
23597;DHT22;40226;50.874;4.394;2024-03-29T10:55:35;13.10;1.00
23597;DHT22;40226;50.874;4.394;2024-03-29T10:58:01;13.20;99.90
23597;DHT22;40226;50.874;4.394;2024-03-29T11:00:38;13.20;99.90
23597;DHT22;40226;50.874;4.394;2024-03-29T11:03:44;13.50;1.00
23597;DHT22;40226;50.874;4.394;2024-03-29T11:06:12;13.60;69.40
23597;DHT22;40226;50.874;4.394;2024-03-29T11:08:40;13.90;1.00
23597;DHT22;40226;50.874;4.394;2024-03-29T11:11:12;14.00;1.00
23597;DHT22;40226;50.874;4.394;2024-03-29T11:16:04;14.60;1.00
23597;DHT22;40226;50.874;4.394;2024-03-29T11:18:30;15.00;1.00
23597;DHT22;40226;50.874;4.394;2024-03-29T11:20:57;15.00;99.90
23597;DHT22;40226;50.874;4.394;2024-03-29T11:23:26;14.90;1.00
23597;DHT22;40226;50.874;4.394;2024-03-29T11:25:53;15.10;1.00
23597;DHT22;40226;50.874;4.394;2024-03-29T11:28:24;15.30;99.90
23597;DHT22;40226;50.874;4.394;2024-03-29T11:30:52;15.20;18.10
23597;DHT22;40226;50.874;4.394;2024-03-29T11:33:33;15.00;75.70
23597;DHT22;40226;50.874;4.394;2024-03-29T11:36:00;15.40;1.00
23597;DHT22;40226;50.874;4.394;2024-03-29T11:38:31;15.90;1.00
23597;DHT22;40226;50.874;4.394;2024-03-29T11:41:14;15.80;99.90
23597;DHT22;40226;50.874;4.394;2024-03-29T11:43:40;15.90;99.90
23597;DHT22;40226;50.874;4.394;2024-03-29T11:46:09;16.10;99.90
23597;DHT22;40226;50.874;4.394;2024-03-29T11:48:35;16.20;99.90
23597;DHT22;40226;50.874;4.394;2024-03-29T11:51:03;16.20;77.40
23597;DHT22;40226;50.874;4.394;2024-03-29T11:53:30;16.00;55.60
23597;DHT22;40226;50.874;4.394;2024-03-29T11:56:01;15.70;39.40
23597;DHT22;40226;50.874;4.394;2024-03-29T11:58:28;15.30;99.90
23597;DHT22;40226;50.874;4.394;2024-03-29T12:00:55;15.30;99.90
23597;DHT22;40226;50.874;4.394;2024-03-29T12:03:22;15.70;99.90
23597;DHT22;40226;50.874;4.394;2024-03-29T12:05:49;15.60;9.00
23597;DHT22;40226;50.874;4.394;2024-03-29T12:08:20;15.50;58.70
23597;DHT22;40226;50.874;4.394;2024-03-29T12:10:46;15.50;1.00
23597;DHT22;40226;50.874;4.394;2024-03-29T12:13:14;15.70;1.30
23597;DHT22;40226;50.874;4.394;2024-03-29T12:15:40;16.00;1.00
23597;DHT22;40226;50.874;4.394;2024-03-29T12:18:06;16.10;1.00
23597;DHT22;40226;50.874;4.394;2024-03-29T12:20:33;16.40;1.00
23597;DHT22;40226;50.874;4.394;2024-03-29T12:22:59;17.00;1.00
23597;DHT22;40226;50.874;4.394;2024-03-29T12:25:26;17.00;1.00
23597;DHT22;40226;50.874;4.394;2024-03-29T12:27:53;17.00;1.00
23597;DHT22;40226;50.874;4.394;2024-03-29T12:30:18;16.70;1.00
23597;DHT22;40226;50.874;4.394;2024-03-29T12:32:44;17.00;1.00
23597;DHT22;40226;50.874;4.394;2024-03-29T12:35:11;16.70;1.00
23597;DHT22;40226;50.874;4.394;2024-03-29T12:37:37;16.20;1.00
23597;DHT22;40226;50.874;4.394;2024-03-29T12:40:12;16.30;1.00
23597;DHT22;40226;50.874;4.394;2024-03-29T12:42:41;16.30;1.00
23597;DHT22;40226;50.874;4.394;2024-03-29T12:45:09;16.10;1.00
23597;DHT22;40226;50.874;4.394;2024-03-29T12:47:36;16.40;1.00
23597;DHT22;40226;50.874;4.394;2024-03-29T12:50:02;16.70;1.00
23597;DHT22;40226;50.874;4.394;2024-03-29T12:52:40;16.60;99.90
23597;DHT22;40226;50.874;4.394;2024-03-29T12:55:06;16.30;1.00
23597;DHT22;40226;50.874;4.394;2024-03-29T12:57:37;16.30;1.00
23597;DHT22;40226;50.874;4.394;2024-03-29T13:00:04;16.60;1.00
23597;DHT22;40226;50.874;4.394;2024-03-29T13:02:37;16.90;99.90
23597;DHT22;40226;50.874;4.394;2024-03-29T13:05:03;16.90;99.90
23597;DHT22;40226;50.874;4.394;2024-03-29T13:07:34;16.60;99.90
23597;DHT22;40226;50.874;4.394;2024-03-29T13:10:00;17.10;99.90
23597;DHT22;40226;50.874;4.394;2024-03-29T13:12:29;17.30;99.90
23597;DHT22;40226;50.874;4.394;2024-03-29T13:14:55;17.80;99.90
23597;DHT22;40226;50.874;4.394;2024-03-29T13:17:21;18.20;99.90
23597;DHT22;40226;50.874;4.394;2024-03-29T13:19:47;17.90;99.90
23597;DHT22;40226;50.874;4.394;2024-03-29T13:22:12;17.30;99.90
23597;DHT22;40226;50.874;4.394;2024-03-29T13:24:38;16.70;99.90
23597;DHT22;40226;50.874;4.394;2024-03-29T13:27:03;16.50;99.90
23597;DHT22;40226;50.874;4.394;2024-03-29T13:29:29;16.70;99.90
23597;DHT22;40226;50.874;4.394;2024-03-29T13:31:56;17.20;99.90
23597;DHT22;40226;50.874;4.394;2024-03-29T13:34:22;17.60;99.90
23597;DHT22;40226;50.874;4.394;2024-03-29T13:36:48;18.50;99.90
23597;DHT22;40226;50.874;4.394;2024-03-29T13:39:13;18.10;99.90
23597;DHT22;40226;50.874;4.394;2024-03-29T13:41:41;18.30;99.90
23597;DHT22;40226;50.874;4.394;2024-03-29T13:44:07;18.30;99.90
23597;DHT22;40226;50.874;4.394;2024-03-29T13:46:35;19.00;99.90
23597;DHT22;40226;50.874;4.394;2024-03-29T13:49:02;18.60;99.90
23597;DHT22;40226;50.874;4.394;2024-03-29T13:51:29;18.40;99.90
23597;DHT22;40226;50.874;4.394;2024-03-29T13:53:54;17.50;99.90
23597;DHT22;40226;50.874;4.394;2024-03-29T13:56:21;17.10;99.90
23597;DHT22;40226;50.874;4.394;2024-03-29T13:58:46;17.30;99.90
23597;DHT22;40226;50.874;4.394;2024-03-29T14:01:12;17.30;99.90
23597;DHT22;40226;50.874;4.394;2024-03-29T14:03:38;16.80;99.90
23597;DHT22;40226;50.874;4.394;2024-03-29T14:06:04;16.60;99.90
23597;DHT22;40226;50.874;4.394;2024-03-29T14:08:31;16.20;99.90
23597;DHT22;40226;50.874;4.394;2024-03-29T14:10:57;16.40;99.90
23597;DHT22;40226;50.874;4.394;2024-03-29T14:13:23;16.80;99.90
23597;DHT22;40226;50.874;4.394;2024-03-29T14:15:49;17.00;99.90
23597;DHT22;40226;50.874;4.394;2024-03-29T14:18:15;17.10;99.90
23597;DHT22;40226;50.874;4.394;2024-03-29T14:20:40;17.00;99.90
23597;DHT22;40226;50.874;4.394;2024-03-29T14:23:06;17.20;99.90
23597;DHT22;40226;50.874;4.394;2024-03-29T14:25:36;17.30;99.90
23597;DHT22;40226;50.874;4.394;2024-03-29T14:28:02;17.40;99.90
23597;DHT22;40226;50.874;4.394;2024-03-29T14:30:29;16.70;99.90
23597;DHT22;40226;50.874;4.394;2024-03-29T14:32:55;16.50;99.90
23597;DHT22;40226;50.874;4.394;2024-03-29T14:35:22;17.30;99.90
23597;DHT22;40226;50.874;4.394;2024-03-29T14:37:48;17.70;99.90
23597;DHT22;40226;50.874;4.394;2024-03-29T14:40:14;17.30;99.90
23597;DHT22;40226;50.874;4.394;2024-03-29T14:42:44;17.30;99.90
23597;DHT22;40226;50.874;4.394;2024-03-29T14:45:10;17.70;84.60
23597;DHT22;40226;50.874;4.394;2024-03-29T14:47:39;18.30;42.30
23597;DHT22;40226;50.874;4.394;2024-03-29T14:50:05;17.70;1.00
23597;DHT22;40226;50.874;4.394;2024-03-29T14:52:34;17.70;10.10
23597;DHT22;40226;50.874;4.394;2024-03-29T14:54:59;17.80;7.10
23597;DHT22;40226;50.874;4.394;2024-03-29T14:57:25;18.30;1.30
23597;DHT22;40226;50.874;4.394;2024-03-29T14:59:51;18.30;1.00
23597;DHT22;40226;50.874;4.394;2024-03-29T15:02:16;17.90;1.00
23597;DHT22;40226;50.874;4.394;2024-03-29T15:04:42;18.10;1.00
23597;DHT22;40226;50.874;4.394;2024-03-29T15:07:08;18.90;1.00
23597;DHT22;40226;50.874;4.394;2024-03-29T15:09:34;18.40;1.00
23597;DHT22;40226;50.874;4.394;2024-03-29T15:12:03;18.10;1.00
23597;DHT22;40226;50.874;4.394;2024-03-29T15:14:32;17.70;1.00
23597;DHT22;40226;50.874;4.394;2024-03-29T15:16:57;17.60;1.00
23597;DHT22;40226;50.874;4.394;2024-03-29T15:19:23;17.60;1.00
23597;DHT22;40226;50.874;4.394;2024-03-29T15:21:49;17.30;1.00
23597;DHT22;40226;50.874;4.394;2024-03-29T15:24:15;17.20;10.10
23597;DHT22;40226;50.874;4.394;2024-03-29T15:26:41;16.90;11.60
23597;DHT22;40226;50.874;4.394;2024-03-29T15:29:07;16.50;33.70
23597;DHT22;40226;50.874;4.394;2024-03-29T15:31:42;16.30;66.40
23597;DHT22;40226;50.874;4.394;2024-03-29T15:34:12;16.20;79.10
23597;DHT22;40226;50.874;4.394;2024-03-29T15:36:38;15.90;76.70
23597;DHT22;40226;50.874;4.394;2024-03-29T15:39:05;15.90;97.10
23597;DHT22;40226;50.874;4.394;2024-03-29T15:41:35;16.00;99.90